Huvudsida
METAR-TAF:

METAR-TAF

Flygplatser :

Svolværs flygplats. Helle

Svolvær, Norge

latitud: 68-15N, longitud: 014-40E, höjd: 0 m

Aktuellt väderrapport

Denna rapport gjordes för 24 timmar och 12 minuter sedan, klockan 07:50 UTC
Vind 7 kt från nordväst, varierande mellan väst och nord/nordväst
Temperatur -3°C
Fuktighet 74%
Tryck 1000 hPa
Sikt 10 km eller mer
Spridda moln på en höjd av 2000 ft
Brutna moln på en höjd av 6000 ft
lätta snöbyar

METAR: ENSH 040750Z 31007KT 260V330 9999 -SHSN SCT020 BKN060 M03/M07 Q1000 RMK WIND 150FT 28011KT

Tid: 10:02 (08:02 UTC)


TAF: saknas

Aktuella väderrapporter och prognoser från 4000 flygplatser (METAR- och TAF-rapporter).

De tillgängliga stationerna syns som gula och röda prickar på kartan.

För musen över prickarna för att se namnen på stationerna.

Klicka sedan för att få väderrapporter och prognoser.

För att ändra kartan: Klicka på de gröna knapparna med ett svart kors på för att zooma in; den gröna knappen med ett streck på för att zooma ut; eller på de gröna pilarna för angränsande kartor.


METAR-TAF: